Time;durP1;ratioP1;P1;durP2;ratioP2;P2;SDS_P1;SDS_P2;PMS_P1;PMS_P2;Temp;Humidity;BMP_temperature;BMP_pressure;BME280_temperature;BME280_humidity;BME280_pressure;Samples;Min_cycle;Max_cycle;Signal;HPM_P1;HPM_P2
2022/09/10 00:00:01;;;;;;;2.33;1.40;;;23.10;99.90;;;;;;5057390;28;20049;-73
2022/09/10 00:02:27;;;;;;;3.60;1.40;;;23.10;99.90;;;;;;5052774;28;20090;-74
2022/09/10 00:04:54;;;;;;;5.82;1.50;;;23.20;99.90;;;;;;5056786;28;20029;-74
2022/09/10 00:07:20;;;;;;;4.28;1.33;;;23.20;99.90;;;;;;5052296;28;20507;-73
2022/09/10 00:09:46;;;;;;;4.03;1.38;;;23.20;99.90;;;;;;5069476;28;20053;-73
2022/09/10 00:12:12;;;;;;;3.78;1.40;;;23.30;99.90;;;;;;5040025;28;20034;-73
2022/09/10 00:14:38;;;;;;;5.47;1.40;;;23.30;99.90;;;;;;5049493;28;20445;-73
2022/09/10 00:17:05;;;;;;;5.15;1.45;;;23.30;99.90;;;;;;5052433;28;20112;-74
2022/09/10 00:19:31;;;;;;;2.67;1.33;;;23.30;99.90;;;;;;5051260;28;20045;-73
2022/09/10 00:21:57;;;;;;;3.78;1.23;;;23.40;99.90;;;;;;5068704;28;20041;-73
2022/09/10 00:24:24;;;;;;;3.33;1.20;;;23.30;99.90;;;;;;5051316;28;20033;-74
2022/09/10 00:26:50;;;;;;;4.60;1.30;;;23.40;99.90;;;;;;5059739;28;20057;-74
2022/09/10 00:29:17;;;;;;;5.03;1.30;;;23.40;99.90;;;;;;5046665;28;20037;-73
2022/09/10 00:31:43;;;;;;;3.70;1.20;;;23.40;99.90;;;;;;5059617;28;20041;-73
2022/09/10 00:34:13;;;;;;;4.60;1.40;;;23.40;99.90;;;;;;5051488;28;20403;-73
2022/09/10 00:36:41;;;;;;;4.32;1.33;;;23.40;99.90;;;;;;5054999;28;20036;-72
2022/09/10 00:39:12;;;;;;;4.95;1.23;;;23.40;99.90;;;;;;5058164;28;20345;-73
2022/09/10 00:41:42;;;;;;;3.10;1.50;;;23.40;99.90;;;;;;5050701;28;20233;-74
2022/09/10 00:44:39;;;;;;;4.75;1.50;;;23.40;99.90;;;;;;5052128;28;20041;-73
2022/09/10 00:47:13;;;;;;;4.43;1.75;;;23.30;99.90;;;;;;5049222;28;20036;-72
2022/09/10 00:49:44;;;;;;;7.07;1.58;;;23.20;99.90;;;;;;5067291;28;20033;-73
2022/09/10 00:52:11;;;;;;;4.45;1.75;;;23.20;99.90;;;;;;5053966;28;20040;-73
2022/09/10 00:54:39;;;;;;;3.80;1.67;;;23.20;99.90;;;;;;5048935;28;20037;-73
2022/09/10 00:57:11;;;;;;;4.47;1.02;;;23.10;99.90;;;;;;5048000;28;20033;-73
2022/09/10 00:59:41;;;;;;;3.78;1.30;;;23.00;99.90;;;;;;5042260;28;20571;-74
2022/09/10 01:02:07;;;;;;;5.55;1.33;;;23.00;99.90;;;;;;5049540;28;20072;-73
2022/09/10 01:04:34;;;;;;;5.53;1.33;;;23.00;99.90;;;;;;5053348;28;20067;-74
2022/09/10 01:07:01;;;;;;;5.30;1.23;;;23.00;99.90;;;;;;5054180;28;20860;-74
2022/09/10 01:09:28;;;;;;;4.28;1.35;;;22.90;99.90;;;;;;5051745;28;20037;-73
2022/09/10 01:12:08;;;;;;;2.80;1.45;;;22.90;99.90;;;;;;5050196;28;20049;-74
2022/09/10 01:15:02;;;;;;;3.28;1.17;;;22.90;99.90;;;;;;5026479;28;20042;-74
2022/09/10 01:17:34;;;;;;;1.52;1.00;;;22.90;99.90;;;;;;5068224;28;20120;-74
2022/09/10 01:20:20;;;;;;;1.40;0.90;;;22.90;99.90;;;;;;5045134;28;20040;-73
2022/09/10 01:23:05;;;;;;;4.20;1.08;;;22.80;99.90;;;;;;5022925;28;20445;-73
2022/09/10 01:25:58;;;;;;;3.95;1.48;;;22.70;99.90;;;;;;5027109;28;20480;-73
2022/09/10 01:28:47;;;;;;;3.13;1.35;;;22.80;99.90;;;;;;5031378;28;20042;-74
2022/09/10 01:31:52;;;;;;;3.45;1.67;;;22.70;99.90;;;;;;5028073;28;20041;-73
2022/09/10 01:34:26;;;;;;;2.92;0.98;;;22.60;99.90;;;;;;5021236;28;20064;-73
2022/09/10 01:36:58;;;;;;;3.08;1.17;;;22.60;99.90;;;;;;5048159;28;20037;-73
2022/09/10 01:39:25;;;;;;;;;;;22.60;99.90;;;;;;5027246;28;20973;-73
2022/09/10 01:41:53;;;;;;;3.53;1.10;;;22.50;99.90;;;;;;5035748;28;19928;-73
2022/09/10 01:44:42;;;;;;;2.20;1.00;;;22.50;99.90;;;;;;5029320;28;20042;-73
2022/09/10 01:48:05;;;;;;;5.35;1.20;;;22.50;99.90;;;;;;5030567;28;20032;-73
2022/09/10 01:51:01;;;;;;;2.88;1.20;;;22.50;99.90;;;;;;5028213;28;20022;-73
2022/09/10 01:53:40;;;;;;;1.80;1.08;;;22.50;99.90;;;;;;5012260;28;20172;-72
2022/09/10 01:56:15;;;;;;;4.75;1.30;;;22.40;99.90;;;;;;5042879;28;20112;-73
2022/09/10 01:58:43;;;;;;;2.15;1.08;;;22.40;99.90;;;;;;5041573;28;20534;-73
2022/09/10 02:01:33;;;;;;;3.80;1.10;;;22.40;99.90;;;;;;5047402;28;20043;-74
2022/09/10 02:04:08;;;;;;;2.70;1.55;;;22.40;99.90;;;;;;5066348;28;20700;-73
2022/09/10 02:06:38;;;;;;;3.83;1.30;;;22.40;99.90;;;;;;5048031;28;20036;-73
2022/09/10 02:09:06;;;;;;;3.15;1.10;;;22.40;99.90;;;;;;5059858;28;20391;-74
2022/09/10 02:11:47;;;;;;;3.03;1.20;;;22.40;99.90;;;;;;5038586;28;20075;-73
2022/09/10 02:14:15;;;;;;;4.40;1.15;;;22.40;99.90;;;;;;5044905;28;20183;-73
2022/09/10 02:16:48;;;;;;;2.30;1.02;;;22.40;99.90;;;;;;5053618;28;20057;-74
2022/09/10 02:19:15;;;;;;;4.57;1.33;;;22.50;99.90;;;;;;5055662;28;20388;-73
2022/09/10 02:21:41;;;;;;;6.72;1.50;;;22.50;99.90;;;;;;5052288;28;20111;-73
2022/09/10 02:24:10;;;;;;;3.88;1.30;;;22.50;99.90;;;;;;5045939;28;20538;-74
2022/09/10 02:26:38;;;;;;;4.15;1.20;;;22.50;99.90;;;;;;5050496;28;20037;-74
2022/09/10 02:29:05;;;;;;;2.78;1.20;;;22.40;99.90;;;;;;5048762;28;20451;-74
2022/09/10 02:31:32;;;;;;;4.43;1.35;;;22.50;99.90;;;;;;5041298;28;20496;-72
2022/09/10 02:33:58;;;;;;;3.63;1.20;;;22.50;99.90;;;;;;5047274;28;20041;-73
2022/09/10 02:36:24;;;;;;;4.45;1.45;;;22.40;99.90;;;;;;5046675;28;20042;-73
2022/09/10 02:38:51;;;;;;;5.65;1.40;;;22.40;99.90;;;;;;5051571;28;20033;-73
2022/09/10 02:41:17;;;;;;;4.55;1.75;;;22.30;99.90;;;;;;5048086;28;20032;-73
2022/09/10 02:43:45;;;;;;;4.47;1.50;;;22.30;99.90;;;;;;5055127;28;20408;-74
2022/09/10 02:46:12;;;;;;;4.00;1.50;;;22.30;99.90;;;;;;5058726;28;20042;-73
2022/09/10 02:48:38;;;;;;;4.82;1.52;;;22.30;99.90;;;;;;5028547;28;20038;-73
2022/09/10 02:51:05;;;;;;;3.65;1.40;;;22.30;99.90;;;;;;5028915;28;20557;-73
2022/09/10 02:53:31;;;;;;;6.95;1.50;;;22.30;99.90;;;;;;5031700;28;20040;-73
2022/09/10 02:55:57;;;;;;;4.60;1.10;;;22.40;99.90;;;;;;5047901;28;20090;-73
2022/09/10 02:58:23;;;;;;;4.13;1.30;;;22.30;99.90;;;;;;5046267;28;20043;-73
2022/09/10 03:00:49;;;;;;;3.25;1.55;;;22.20;99.90;;;;;;5051441;28;20040;-73
2022/09/10 03:03:16;;;;;;;3.15;1.33;;;22.20;99.90;;;;;;5039360;28;20111;-73
2022/09/10 03:05:42;;;;;;;2.92;1.10;;;22.20;99.90;;;;;;5061343;28;20037;-72
2022/09/10 03:08:09;;;;;;;3.25;1.27;;;22.20;99.90;;;;;;5056199;28;20075;-72
2022/09/10 03:10:36;;;;;;;2.50;1.13;;;22.20;99.90;;;;;;5060200;28;20387;-73
2022/09/10 03:13:02;;;;;;;3.85;1.17;;;22.10;99.90;;;;;;5053183;28;20052;-73
2022/09/10 03:15:28;;;;;;;6.35;1.30;;;22.10;99.90;;;;;;5036036;28;20037;-73
2022/09/10 03:17:54;;;;;;;4.70;1.38;;;22.10;99.90;;;;;;5035555;28;20026;-73
2022/09/10 03:20:21;;;;;;;3.72;1.25;;;22.10;99.90;;;;;;5051654;28;20481;-73
2022/09/10 03:22:50;;;;;;;2.25;1.25;;;22.20;99.90;;;;;;5033314;28;20040;-73
2022/09/10 03:25:17;;;;;;;4.13;1.10;;;22.10;99.90;;;;;;5032368;28;20061;-73
2022/09/10 03:27:43;;;;;;;2.38;1.23;;;22.10;99.90;;;;;;5035051;28;20045;-73
2022/09/10 03:30:09;;;;;;;3.17;1.30;;;22.00;99.90;;;;;;5031744;28;20358;-73
2022/09/10 03:32:36;;;;;;;2.30;0.90;;;22.00;99.90;;;;;;5034891;28;20049;-73
2022/09/10 03:35:02;;;;;;;2.50;1.10;;;22.00;99.90;;;;;;5049206;28;20060;-73
2022/09/10 03:37:30;;;;;;;3.72;1.25;;;22.00;99.90;;;;;;5051479;28;20030;-72
2022/09/10 03:39:57;;;;;;;4.72;1.00;;;21.90;99.90;;;;;;5033654;28;20037;-73
2022/09/10 03:42:23;;;;;;;4.25;1.20;;;21.90;99.90;;;;;;5035344;28;20029;-74
2022/09/10 03:44:49;;;;;;;3.78;1.17;;;21.90;99.90;;;;;;5040524;28;20046;-74
2022/09/10 03:47:15;;;;;;;3.15;1.23;;;21.90;99.90;;;;;;5030392;28;20055;-74
2022/09/10 03:49:41;;;;;;;2.35;1.00;;;21.90;99.90;;;;;;5035145;28;20060;-72
2022/09/10 03:52:11;;;;;;;3.78;1.20;;;21.80;99.90;;;;;;5037124;28;20041;-73
2022/09/10 03:54:38;;;;;;;3.40;1.20;;;21.80;99.90;;;;;;5031579;28;20041;-72
2022/09/10 03:57:07;;;;;;;2.50;1.02;;;21.90;99.90;;;;;;5035810;28;20561;-73
2022/09/10 03:59:33;;;;;;;4.47;1.35;;;21.90;99.90;;;;;;5034122;28;20037;-73
2022/09/10 04:02:01;;;;;;;3.10;1.10;;;21.80;99.90;;;;;;5037406;28;20036;-73
2022/09/10 04:04:28;;;;;;;3.42;1.25;;;21.80;99.90;;;;;;5033807;28;20053;-74
2022/09/10 04:06:54;;;;;;;3.33;1.15;;;21.90;99.90;;;;;;5035691;28;20112;-73
2022/09/10 04:09:20;;;;;;;6.07;1.38;;;21.90;99.90;;;;;;5045797;28;20121;-73
2022/09/10 04:11:46;;;;;;;4.65;1.35;;;21.90;99.90;;;;;;5031298;28;20059;-73
2022/09/10 04:14:11;;;;;;;3.83;1.38;;;21.90;99.90;;;;;;5029048;28;20087;-72
2022/09/10 04:16:39;;;;;;;3.20;1.17;;;21.90;99.90;;;;;;5035250;28;20553;-72
2022/09/10 04:19:04;;;;;;;4.20;1.30;;;21.90;99.90;;;;;;5028317;28;20064;-73
2022/09/10 04:21:31;;;;;;;5.43;1.20;;;21.80;99.90;;;;;;5022820;28;20901;-73
2022/09/10 04:24:00;;;;;;;3.05;1.33;;;21.80;99.90;;;;;;5048953;28;20061;-73
2022/09/10 04:26:26;;;;;;;3.38;1.33;;;21.80;99.90;;;;;;5031723;28;20036;-73
2022/09/10 04:28:52;;;;;;;4.43;1.30;;;21.80;99.90;;;;;;5036293;28;20045;-73
2022/09/10 04:31:18;;;;;;;3.30;1.25;;;21.90;99.90;;;;;;5034868;28;20048;-74
2022/09/10 04:33:45;;;;;;;4.07;1.17;;;21.90;99.90;;;;;;5024202;28;20025;-75
2022/09/10 04:36:14;;;;;;;2.53;1.30;;;21.80;99.90;;;;;;5030705;28;20774;-73
2022/09/10 04:38:40;;;;;;;4.35;1.50;;;21.80;99.90;;;;;;5044664;28;20034;-73
2022/09/10 04:41:08;;;;;;;4.53;1.60;;;21.80;99.90;;;;;;5029453;28;20038;-72
2022/09/10 04:43:34;;;;;;;6.05;1.17;;;21.70;99.90;;;;;;5025086;28;20040;-74
2022/09/10 04:46:00;;;;;;;3.72;1.17;;;21.70;99.90;;;;;;5032262;28;20435;-73
2022/09/10 04:48:27;;;;;;;4.57;1.30;;;21.70;99.90;;;;;;5035427;28;20033;-74
2022/09/10 04:50:53;;;;;;;2.83;1.25;;;21.70;99.90;;;;;;5034472;28;20033;-73
2022/09/10 04:53:20;;;;;;;4.13;1.38;;;21.70;99.90;;;;;;5042515;28;20048;-74
2022/09/10 04:55:48;;;;;;;5.10;1.48;;;21.70;99.90;;;;;;5048253;28;20048;-73
2022/09/10 04:58:14;;;;;;;4.10;1.20;;;21.70;99.90;;;;;;5031646;28;20022;-73
2022/09/10 05:00:39;;;;;;;2.17;1.10;;;21.80;99.90;;;;;;5036879;28;20168;-73
2022/09/10 05:03:06;;;;;;;4.03;1.50;;;21.70;99.90;;;;;;5035406;28;20120;-73
2022/09/10 05:05:33;;;;;;;11.80;1.63;;;21.70;99.90;;;;;;5017022;28;20113;-73
2022/09/10 05:07:59;;;;;;;5.60;1.25;;;21.70;99.90;;;;;;5036445;28;20035;-74
2022/09/10 05:10:28;;;;;;;5.53;1.30;;;21.70;99.90;;;;;;5026597;28;20029;-75
2022/09/10 05:12:54;;;;;;;3.35;1.38;;;21.80;99.90;;;;;;5025002;28;20048;-73
2022/09/10 05:15:21;;;;;;;3.88;1.52;;;21.80;99.90;;;;;;5050913;28;20136;-73
2022/09/10 05:17:47;;;;;;;4.05;1.27;;;21.90;99.90;;;;;;5047064;28;20044;-74
2022/09/10 05:20:13;;;;;;;5.72;1.27;;;21.90;99.90;;;;;;5037072;28;20040;-74
2022/09/10 05:22:41;;;;;;;3.20;1.35;;;21.90;99.90;;;;;;5039224;28;20088;-75
2022/09/10 05:25:08;;;;;;;3.55;1.13;;;22.00;99.90;;;;;;5044075;28;20060;-72
2022/09/10 05:27:34;;;;;;;5.65;1.30;;;22.00;99.90;;;;;;5045892;28;20106;-74
2022/09/10 05:30:00;;;;;;;5.13;1.33;;;22.00;99.90;;;;;;5014445;28;20547;-75
2022/09/10 05:32:27;;;;;;;3.17;1.30;;;22.00;99.90;;;;;;5039014;28;20038;-75
2022/09/10 05:34:54;;;;;;;5.75;1.35;;;22.10;99.90;;;;;;5035018;28;20590;-73
2022/09/10 05:37:21;;;;;;;3.72;1.35;;;22.00;99.90;;;;;;5032433;28;20033;-73
2022/09/10 05:39:47;;;;;;;6.82;1.50;;;22.10;99.90;;;;;;5034053;28;20034;-73
2022/09/10 05:42:13;;;;;;;5.43;1.42;;;22.10;99.90;;;;;;5033248;28;20034;-75
2022/09/10 05:44:40;;;;;;;6.03;1.83;;;22.10;99.90;;;;;;5036323;28;20049;-75
2022/09/10 05:47:06;;;;;;;6.95;1.70;;;22.20;99.90;;;;;;5030937;28;20117;-74
2022/09/10 05:49:33;;;;;;;4.63;1.50;;;22.30;99.90;;;;;;5036123;28;20053;-75
2022/09/10 05:51:59;;;;;;;4.25;1.50;;;22.30;99.90;;;;;;5030257;28;20033;-74
2022/09/10 05:54:25;;;;;;;7.07;1.60;;;22.40;99.90;;;;;;5031042;28;20083;-73
2022/09/10 05:56:50;;;;;;;4.20;1.70;;;22.50;99.90;;;;;;5029450;28;20476;-73
2022/09/10 05:59:16;;;;;;;4.70;1.75;;;22.50;99.90;;;;;;5023376;28;20090;-75
2022/09/10 06:01:42;;;;;;;5.20;1.30;;;22.60;99.90;;;;;;5025690;28;20087;-73
2022/09/10 06:04:10;;;;;;;6.38;2.00;;;22.70;99.90;;;;;;5009262;28;20044;-77
2022/09/10 06:06:36;;;;;;;6.80;1.90;;;22.70;99.90;;;;;;5021049;28;20436;-76
2022/09/10 06:09:02;;;;;;;9.77;1.77;;;22.80;99.90;;;;;;5015435;28;20042;-75
2022/09/10 06:11:28;;;;;;;4.82;1.55;;;22.80;99.90;;;;;;5036126;28;20041;-76
2022/09/10 06:13:54;;;;;;;7.25;2.50;;;22.80;99.90;;;;;;5019716;28;20048;-75
2022/09/10 06:16:20;;;;;;;5.13;2.10;;;22.80;99.90;;;;;;5016044;28;20436;-74
2022/09/10 06:18:46;;;;;;;7.35;1.90;;;22.80;99.90;;;;;;5019927;28;20041;-74
2022/09/10 06:21:15;;;;;;;4.38;1.60;;;22.80;99.90;;;;;;5026056;28;20033;-74
2022/09/10 06:23:41;;;;;;;6.10;1.88;;;22.80;99.90;;;;;;5033244;28;20066;-74
2022/09/10 06:26:11;;;;;;;5.85;1.48;;;22.90;99.90;;;;;;5027574;28;20057;-74
2022/09/10 06:28:37;;;;;;;6.38;1.60;;;22.90;99.90;;;;;;5022645;28;20041;-74
2022/09/10 06:31:03;;;;;;;5.03;1.20;;;22.90;99.90;;;;;;5029782;28;20032;-75
2022/09/10 06:33:29;;;;;;;6.35;1.67;;;22.90;99.90;;;;;;5013943;28;20113;-74
2022/09/10 06:35:56;;;;;;;6.03;1.50;;;22.90;99.90;;;;;;5028640;28;20029;-75
2022/09/10 06:38:23;;;;;;;6.75;1.33;;;22.90;99.90;;;;;;5025524;28;20038;-74
2022/09/10 06:40:58;;;;;;;7.47;1.67;;;23.00;99.90;;;;;;5042270;28;20162;-74
2022/09/10 06:43:25;;;;;;;5.57;1.38;;;23.10;99.90;;;;;;5034399;28;20033;-73
2022/09/10 06:45:54;;;;;;;4.28;1.70;;;23.10;99.90;;;;;;5041013;28;20033;-76
2022/09/10 06:48:26;;;;;;;7.38;1.50;;;23.20;99.90;;;;;;5032720;28;20025;-75
2022/09/10 06:50:54;;;;;;;3.92;1.40;;;23.20;99.90;;;;;;5023523;28;20026;-75
2022/09/10 06:53:21;;;;;;;5.57;1.27;;;23.20;99.90;;;;;;5034789;28;20025;-75
2022/09/10 06:55:51;;;;;;;6.35;1.48;;;23.30;99.90;;;;;;5038116;28;20040;-75
2022/09/10 06:58:23;;;;;;;8.07;1.63;;;23.20;99.90;;;;;;5032639;28;20045;-75
2022/09/10 07:00:50;;;;;;;3.75;1.30;;;23.30;99.90;;;;;;5045301;28;20037;-75
2022/09/10 07:03:17;;;;;;;5.03;1.70;;;23.20;99.90;;;;;;5036969;28;20078;-76
2022/09/10 07:05:47;;;;;;;2.95;1.20;;;23.30;99.90;;;;;;5053833;28;20029;-74
2022/09/10 07:08:16;;;;;;;9.35;1.70;;;23.50;99.90;;;;;;5034934;28;20493;-75
2022/09/10 07:10:43;;;;;;;5.60;1.50;;;23.60;99.90;;;;;;5029750;28;20030;-76
2022/09/10 07:13:09;;;;;;;7.32;2.95;;;23.60;99.90;;;;;;5037730;28;20047;-74
2022/09/10 07:15:35;;;;;;;4.65;1.60;;;23.50;99.90;;;;;;5035536;28;20039;-75
2022/09/10 07:18:02;;;;;;;10.90;2.17;;;23.60;99.90;;;;;;5031578;28;20125;-75
2022/09/10 07:20:29;;;;;;;8.00;1.67;;;23.70;99.90;;;;;;5020836;28;20033;-71
2022/09/10 07:22:56;;;;;;;5.13;1.70;;;23.80;99.90;;;;;;5031731;28;20047;-71
2022/09/10 07:25:24;;;;;;;6.03;1.50;;;23.90;99.90;;;;;;5035837;28;20080;-71
2022/09/10 07:27:50;;;;;;;5.35;1.85;;;24.00;99.90;;;;;;5032735;28;20120;-74
2022/09/10 07:30:16;;;;;;;8.73;2.97;;;24.10;99.90;;;;;;5029859;28;20446;-72
2022/09/10 07:32:42;;;;;;;6.47;2.47;;;24.20;99.90;;;;;;5047455;28;20041;-71
2022/09/10 07:35:08;;;;;;;9.30;3.17;;;24.30;99.90;;;;;;5024722;28;20041;-70
2022/09/10 07:37:34;;;;;;;9.70;3.05;;;24.40;99.90;;;;;;5031118;28;20108;-72
2022/09/10 07:40:02;;;;;;;9.20;3.35;;;24.30;99.90;;;;;;5051695;28;20467;-72
2022/09/10 07:42:28;;;;;;;11.70;3.80;;;24.20;99.90;;;;;;5008916;28;20079;-71
2022/09/10 07:44:54;;;;;;;12.35;3.97;;;24.30;99.90;;;;;;5031285;28;20392;-70
2022/09/10 07:47:19;;;;;;;8.85;3.75;;;24.50;99.90;;;;;;5035501;28;20030;-71
2022/09/10 07:49:45;;;;;;;10.50;2.88;;;24.60;99.90;;;;;;5029028;28;20384;-72
2022/09/10 07:52:12;;;;;;;8.70;3.00;;;24.50;99.90;;;;;;5032504;28;20033;-71
2022/09/10 07:54:38;;;;;;;10.20;2.78;;;24.50;99.90;;;;;;5038493;28;20048;-72
2022/09/10 07:57:04;;;;;;;9.50;3.25;;;24.40;99.90;;;;;;5031261;28;20038;-73
2022/09/10 07:59:31;;;;;;;11.90;3.78;;;24.30;99.90;;;;;;5031135;28;20069;-72
2022/09/10 08:02:00;;;;;;;14.07;4.05;;;24.30;99.90;;;;;;5031347;28;20052;-72
2022/09/10 08:04:30;;;;;;;8.27;2.60;;;24.50;99.90;;;;;;5040786;28;20514;-72
2022/09/10 08:06:57;;;;;;;6.40;2.35;;;24.50;99.90;;;;;;5047115;28;20145;-72
2022/09/10 08:09:24;;;;;;;9.23;2.25;;;24.70;99.90;;;;;;5023430;28;20508;-72
2022/09/10 08:11:50;;;;;;;6.20;1.60;;;24.70;99.90;;;;;;5033814;28;20549;-72
2022/09/10 08:14:16;;;;;;;4.78;1.92;;;24.90;99.90;;;;;;5046402;28;20029;-71
2022/09/10 08:16:42;;;;;;;5.95;1.50;;;25.00;99.90;;;;;;5021994;28;20350;-72
2022/09/10 08:19:09;;;;;;;8.18;2.10;;;24.70;99.90;;;;;;5045020;28;20422;-71
2022/09/10 08:21:35;;;;;;;9.50;1.80;;;24.90;99.90;;;;;;5050387;28;20053;-70
2022/09/10 08:24:02;;;;;;;6.90;2.03;;;25.00;99.90;;;;;;5029427;28;20155;-72
2022/09/10 08:26:28;;;;;;;6.10;1.95;;;24.90;99.90;;;;;;5020793;28;20033;-72
2022/09/10 08:28:56;;;;;;;3.78;1.50;;;25.10;99.90;;;;;;5033279;28;20424;-72
2022/09/10 08:31:23;;;;;;;7.53;1.75;;;25.30;99.90;;;;;;5027639;28;20043;-71
2022/09/10 08:33:51;;;;;;;6.53;2.53;;;25.40;99.90;;;;;;5022483;28;20132;-72
2022/09/10 08:36:18;;;;;;;4.30;1.65;;;25.60;99.90;;;;;;5051058;28;20029;-74
2022/09/10 08:38:45;;;;;;;9.02;1.60;;;25.80;99.90;;;;;;5027381;28;20048;-71
2022/09/10 08:41:17;;;;;;;5.38;1.55;;;25.60;99.90;;;;;;5037900;28;20028;-71
2022/09/10 08:44:04;;;;;;;3.55;1.40;;;25.50;99.90;;;;;;5015171;28;20041;-72
2022/09/10 08:46:36;;;;;;;4.53;1.70;;;25.40;99.90;;;;;;5031438;28;20045;-72
2022/09/10 08:49:34;;;;;;;7.45;1.75;;;25.40;99.90;;;;;;5043166;28;20042;-71
2022/09/10 08:52:12;;;;;;;4.60;1.40;;;25.30;99.90;;;;;;5036346;28;20025;-72
2022/09/10 08:55:04;;;;;;;8.13;1.77;;;25.50;99.90;;;;;;5063251;28;20033;-72
2022/09/10 08:57:59;;;;;;;3.50;1.50;;;25.50;99.90;;;;;;5033625;28;20044;-71
2022/09/10 09:00:32;;;;;;;9.63;1.95;;;25.60;99.90;;;;;;5026472;28;20508;-71
2022/09/10 09:03:33;;;;;;;6.90;1.80;;;25.40;99.90;;;;;;5045980;28;20773;-71
2022/09/10 09:06:05;;;;;;;6.18;1.50;;;25.10;99.90;;;;;;5009850;28;20041;-72
2022/09/10 09:08:35;;;;;;;3.42;1.67;;;25.00;99.90;;;;;;5048512;28;20387;-73
2022/09/10 09:11:25;;;;;;;4.88;1.60;;;25.30;99.90;;;;;;5050809;28;20044;-72
2022/09/10 09:14:06;;;;;;;5.57;1.75;;;25.50;99.90;;;;;;5049978;28;20045;-72
2022/09/10 09:16:50;;;;;;;4.53;1.50;;;25.90;99.90;;;;;;5046503;28;20028;-71
2022/09/10 09:19:52;;;;;;;5.38;1.55;;;26.30;99.90;;;;;;5041373;28;20085;-72
2022/09/10 09:22:42;;;;;;;5.50;1.75;;;26.30;99.90;;;;;;5060040;28;20540;-72
2022/09/10 09:25:21;;;;;;;6.22;2.08;;;26.70;99.90;;;;;;5040655;28;20040;-72
2022/09/10 09:27:50;;;;;;;6.28;1.83;;;26.60;99.90;;;;;;5058383;28;20041;-72
2022/09/10 09:30:21;;;;;;;6.63;1.80;;;26.60;99.90;;;;;;5061831;28;20104;-72
2022/09/10 09:32:48;;;;;;;5.57;1.90;;;26.40;99.90;;;;;;5056342;28;20070;-73
2022/09/10 09:35:35;;;;;;;4.47;1.60;;;26.10;99.90;;;;;;5047247;28;20582;-72
2022/09/10 09:38:18;;;;;;;6.28;1.73;;;26.50;99.90;;;;;;5062574;28;20034;-72
2022/09/10 09:40:55;;;;;;;6.85;1.50;;;26.60;99.90;;;;;;5030410;28;20044;-72
2022/09/10 09:43:30;;;;;;;6.82;1.60;;;26.40;99.90;;;;;;5023091;28;20033;-71
2022/09/10 09:45:56;;;;;;;5.70;1.50;;;26.80;99.90;;;;;;5023418;28;20056;-73
2022/09/10 09:48:23;;;;;;;5.25;1.77;;;26.90;99.90;;;;;;5031062;28;20040;-72
2022/09/10 09:50:52;;;;;;;3.53;1.38;;;26.90;99.90;;;;;;5041832;28;20115;-71
2022/09/10 09:53:26;;;;;;;5.05;1.70;;;27.10;99.90;;;;;;5029047;28;20136;-72
2022/09/10 09:55:56;;;;;;;9.35;1.80;;;27.30;99.90;;;;;;5025110;28;20045;-72
2022/09/10 09:58:22;;;;;;;8.65;1.48;;;27.30;99.90;;;;;;5030011;28;20033;-71
2022/09/10 10:01:03;;;;;;;7.25;1.50;;;27.10;99.90;;;;;;5030884;28;20091;-71
2022/09/10 10:03:53;;;;;;;5.38;1.00;;;26.90;99.90;;;;;;5042998;28;20033;-71
2022/09/10 10:06:31;;;;;;;7.07;1.40;;;26.80;99.90;;;;;;5046156;28;20033;-71
2022/09/10 10:09:07;;;;;;;4.53;1.40;;;26.80;99.90;;;;;;5028219;28;20044;-72
2022/09/10 10:11:44;;;;;;;5.45;1.55;;;26.80;99.90;;;;;;5030515;28;20052;-72
2022/09/10 10:14:30;;;;;;;5.82;1.38;;;27.20;99.90;;;;;;5028804;28;20559;-72
2022/09/10 10:16:56;;;;;;;5.95;1.38;;;27.00;99.90;;;;;;5021453;28;20124;-72
2022/09/10 10:19:54;;;;;;;5.15;1.40;;;26.60;99.90;;;;;;5040143;28;20067;-72
2022/09/10 10:22:26;;;;;;;9.32;1.40;;;26.80;99.90;;;;;;5044263;28;20051;-72
2022/09/10 10:24:53;;;;;;;3.40;1.25;;;26.90;99.90;;;;;;5021708;28;20041;-72
2022/09/10 10:27:31;;;;;;;5.28;1.30;;;26.80;99.90;;;;;;5031537;28;20069;-72
2022/09/10 10:30:15;;;;;;;7.85;1.70;;;26.90;99.90;;;;;;5033046;28;20053;-71
2022/09/10 10:32:57;;;;;;;6.10;1.30;;;26.70;99.90;;;;;;5028671;28;20041;-71
2022/09/10 10:35:41;;;;;;;;;;;27.50;99.90;;;;;;5026700;28;20433;-71
2022/09/10 10:38:19;;;;;;;5.25;1.50;;;27.70;99.90;;;;;;5022289;28;19909;-72
2022/09/10 10:40:55;;;;;;;5.07;1.35;;;27.30;99.90;;;;;;5029539;28;20387;-71
2022/09/10 10:43:24;;;;;;;5.80;1.60;;;26.80;99.90;;;;;;5030720;28;20060;-71
2022/09/10 10:46:12;;;;;;;7.78;1.42;;;27.50;99.90;;;;;;5031993;28;20561;-72
2022/09/10 10:48:47;;;;;;;3.25;1.25;;;27.80;99.90;;;;;;5041918;28;20030;-72
2022/09/10 10:51:25;;;;;;;5.93;1.40;;;27.80;99.90;;;;;;5039758;28;20255;-71
2022/09/10 10:54:36;;;;;;;5.35;1.60;;;27.70;99.90;;;;;;5032687;28;20365;-71
2022/09/10 10:57:20;;;;;;;5.50;1.20;;;27.60;99.90;;;;;;5021532;28;20818;-73
2022/09/10 11:00:03;;;;;;;5.78;1.63;;;27.50;99.90;;;;;;5063918;28;20612;-71
2022/09/10 11:02:35;;;;;;;5.88;1.20;;;28.20;99.90;;;;;;5030746;28;20029;-71
2022/09/10 11:05:32;;;;;;;7.43;1.10;;;28.80;99.90;;;;;;5058476;28;20030;-73
2022/09/10 11:08:08;;;;;;;5.13;1.33;;;28.80;99.90;;;;;;5040837;28;20371;-71
2022/09/10 11:10:46;;;;;;;5.45;1.35;;;28.20;99.90;;;;;;5049328;28;20511;-71
2022/09/10 11:13:18;;;;;;;3.97;1.23;;;28.00;99.90;;;;;;5046076;28;20049;-72
2022/09/10 11:15:58;;;;;;;5.75;1.35;;;28.30;99.90;;;;;;5033742;28;20044;-71
2022/09/10 11:18:29;;;;;;;14.93;1.73;;;28.20;99.90;;;;;;5037549;28;20033;-71
2022/09/10 11:21:02;;;;;;;5.63;1.13;;;28.70;99.90;;;;;;5051744;28;20033;-71
2022/09/10 11:23:44;;;;;;;6.32;1.85;;;28.80;99.90;;;;;;5044514;28;20041;-72
2022/09/10 11:26:29;;;;;;;9.07;1.90;;;29.00;99.90;;;;;;5054023;28;20628;-71
2022/09/10 11:29:15;;;;;;;5.43;1.50;;;29.10;99.90;;;;;;5066688;28;20510;-73
2022/09/10 11:31:47;;;;;;;5.80;1.10;;;29.40;99.90;;;;;;5072171;28;20558;-72
2022/09/10 11:34:53;;;;;;;3.78;1.25;;;28.70;99.90;;;;;;5040837;28;20037;-71
2022/09/10 11:37:45;;;;;;;9.70;1.20;;;28.10;99.90;;;;;;5069453;28;20499;-73
2022/09/10 11:41:06;;;;;;;5.55;1.30;;;27.90;99.90;;;;;;5069229;28;20041;-72
2022/09/10 11:44:21;;;;;;;5.30;1.25;;;28.60;99.90;;;;;;5034322;28;20037;-72
2022/09/10 11:47:20;;;;;;;6.88;1.40;;;28.70;99.90;;;;;;5049099;28;20037;-72
2022/09/10 11:50:05;;;;;;;4.85;1.23;;;28.30;99.90;;;;;;5055846;28;20033;-71
2022/09/10 11:52:33;;;;;;;7.55;1.48;;;28.00;99.90;;;;;;5051977;28;20115;-72
2022/09/10 11:55:02;;;;;;;7.30;1.80;;;29.20;99.90;;;;;;5050404;28;20124;-72
2022/09/10 11:58:17;;;;;;;4.60;1.90;;;29.50;99.90;;;;;;5063349;28;20028;-72
2022/09/10 12:01:01;;;;;;;9.05;1.50;;;30.80;99.90;;;;;;5067596;28;20047;-72
2022/09/10 12:03:50;;;;;;;7.47;1.50;;;29.50;99.90;;;;;;5051672;28;20044;-73
2022/09/10 12:06:42;;;;;;;9.38;1.67;;;29.90;99.90;;;;;;5068320;28;20033;-71
2022/09/10 12:09:27;;;;;;;7.32;1.60;;;30.20;99.90;;;;;;5050441;28;20068;-72
2022/09/10 12:12:13;;;;;;;8.35;1.45;;;29.00;99.90;;;;;;5050945;28;20089;-72
2022/09/10 12:14:40;;;;;;;4.78;1.27;;;29.50;99.90;;;;;;5050957;28;20065;-72
2022/09/10 12:17:26;;;;;;;6.13;1.65;;;28.90;99.90;;;;;;5040391;28;20037;-72
2022/09/10 12:19:56;;;;;;;8.05;1.40;;;29.10;99.90;;;;;;5042301;28;20037;-72
2022/09/10 12:22:35;;;;;;;5.55;1.35;;;29.70;99.90;;;;;;5053684;28;20040;-72
2022/09/10 12:25:03;;;;;;;7.65;1.40;;;30.30;99.90;;;;;;5051274;28;20458;-71
2022/09/10 12:27:44;;;;;;;6.53;1.70;;;29.50;99.90;;;;;;5030463;28;20022;-72
2022/09/10 12:30:29;;;;;;;6.47;2.10;;;29.70;99.90;;;;;;5036251;28;20060;-74
2022/09/10 12:32:59;;;;;;;5.30;1.30;;;29.90;99.90;;;;;;5048447;28;20076;-72
2022/09/10 12:35:33;;;;;;;5.80;1.50;;;30.50;99.90;;;;;;5044194;28;20151;-72
2022/09/10 12:38:36;;;;;;;8.75;1.92;;;30.50;99.90;;;;;;5011017;28;20037;-72
2022/09/10 12:41:07;;;;;;;9.68;2.05;;;29.60;99.90;;;;;;5028506;28;20112;-72
2022/09/10 12:43:39;;;;;;;4.80;1.48;;;29.30;99.90;;;;;;5033538;28;20036;-71
2022/09/10 12:46:07;;;;;;;6.57;1.42;;;30.70;99.90;;;;;;5029679;28;20111;-71
2022/09/10 12:48:35;;;;;;;9.23;1.70;;;31.00;99.90;;;;;;5019423;28;20045;-73
2022/09/10 12:51:19;;;;;;;8.18;1.88;;;30.60;99.90;;;;;;5025173;28;20487;-72
2022/09/10 12:54:04;;;;;;;6.15;1.63;;;29.80;99.90;;;;;;5026822;28;20033;-72
2022/09/10 12:56:43;;;;;;;5.45;1.42;;;29.30;99.90;;;;;;5015033;28;20429;-72
2022/09/10 12:59:19;;;;;;;6.93;2.08;;;29.10;99.90;;;;;;5027956;28;20125;-72
2022/09/10 13:01:47;;;;;;;6.03;1.40;;;29.60;99.90;;;;;;5012335;28;20042;-72
2022/09/10 13:04:36;;;;;;;5.05;1.73;;;30.10;99.90;;;;;;5013691;28;20370;-71
2022/09/10 13:07:26;;;;;;;5.13;1.63;;;30.30;99.90;;;;;;5040289;28;20138;-71
2022/09/10 13:10:04;;;;;;;6.15;1.60;;;30.30;99.90;;;;;;5030466;28;20032;-71
2022/09/10 13:12:34;;;;;;;6.38;1.63;;;29.80;99.90;;;;;;5044611;28;20040;-71
2022/09/10 13:15:01;;;;;;;5.97;1.60;;;29.40;99.90;;;;;;5064607;28;20106;-71